New Seabury, Massachusetts
Current Conditions -  °F | °C
As of 8:35 AM on Friday 28 Nov 2014 (Local Time) from KFMH Reporting Station
Light Snow Light Snow  
Wind Chill: 20°   Ceiling: 3700
Heat Index: 30°   Visibility: 4mi
Dew Point: 28°   Wind: 13mph
Humidity: 93%   Direction: 320°NW
Pressure: 30.01"   Gusts: NA
Location:  41.6167°N, 70.4906°W
Report Text: KFMH 281335Z AUTO 32011KT 4SM -SN FEW012 SCT016 OVC037 M01/M02 A3001 RMK AO2
Loading
Personal Weather Stations






























Interactive Weather Map New forecast layout! Learn more

10-Day Weather Forecast

Advertisements
Track Severe Weather on mobile